Time;durP1;ratioP1;P1;durP2;ratioP2;P2;SDS_P1;SDS_P2;PMS_P1;PMS_P2;Temp;Humidity;BMP_temperature;BMP_pressure;BME280_temperature;BME280_humidity;BME280_pressure;Samples;Min_cycle;Max_cycle;Signal;HPM_P1;HPM_P2
2022/06/02 00:02:03;;;;;;;13.90;9.48;;;;;;;;;;5008395;28;20048;-78
2022/06/02 00:04:29;;;;;;;18.55;12.48;;;;;;;;;;4983591;28;20038;-78
2022/06/02 00:07:04;;;;;;;19.30;13.48;;;;;;;;;;5009970;28;20096;-78
2022/06/02 00:09:30;;;;;;;20.57;13.73;;;;;;;;;;4981864;28;20092;-78
2022/06/02 00:11:59;;;;;;;18.15;13.00;;;;;;;;;;4975710;28;20055;-78
2022/06/02 00:14:40;;;;;;;20.17;13.52;;;;;;;;;;4961896;28;20057;-78
2022/06/02 00:17:19;;;;;;;18.27;12.45;;;;;;;;;;5001182;28;20402;-78
2022/06/02 00:19:55;;;;;;;21.00;14.23;;;;;;;;;;4986494;28;20070;-78
2022/06/02 00:22:25;;;;;;;14.48;10.73;;;;;;;;;;4974799;28;20088;-78
2022/06/02 00:24:53;;;;;;;14.35;9.80;;;;;;;;;;4993002;28;20049;-78
2022/06/02 00:27:33;;;;;;;18.00;12.57;;;;;;;;;;4991491;28;20092;-80
2022/06/02 00:30:03;;;;;;;20.08;13.48;;;;;;;;;;4988562;28;20050;-80
2022/06/02 00:32:32;;;;;;;17.50;12.10;;;;;;;;;;4977073;28;20042;-81
2022/06/02 00:35:11;;;;;;;21.73;15.02;;;;;;;;;;4977755;28;20475;-78
2022/06/02 00:37:49;;;;;;;23.63;14.90;;;;;;;;;;4980640;28;20046;-78
2022/06/02 00:40:15;;;;;;;20.98;13.63;;;;;;;;;;4970410;28;20043;-78
2022/06/02 00:42:57;;;;;;;18.75;12.85;;;;;;;;;;4971495;28;20062;-78
2022/06/02 00:45:23;;;;;;;20.75;12.57;;;;;;;;;;4971924;28;20046;-77
2022/06/02 00:48:08;;;;;;;21.52;13.15;;;;;;;;;;4970292;28;20043;-78
2022/06/02 00:50:46;;;;;;;19.80;12.43;;;;;;;;;;4971112;28;20438;-78
2022/06/02 00:53:32;;;;;;;17.58;12.38;;;;;;;;;;4980282;28;20520;-78
2022/06/02 00:59:16;;;;;;;19.45;12.90;;;;;;;;;;5004665;28;20053;-81
2022/06/02 01:01:42;;;;;;;18.05;12.38;;;;;;;;;;4960313;28;20087;-81
2022/06/02 01:04:15;;;;;;;20.33;12.98;;;;;;;;;;4975141;28;20042;-81
2022/06/02 01:06:48;;;;;;;19.50;12.90;;;;;;;;;;5013778;28;20049;-81
2022/06/02 01:09:23;;;;;;;20.33;12.48;;;;;;;;;;4971947;28;20042;-81
2022/06/02 01:12:02;;;;;;;20.25;11.60;;;;;;;;;;4994741;28;20493;-81
2022/06/02 01:14:38;;;;;;;16.80;11.32;;;;;;;;;;4967521;28;20069;-81
2022/06/02 01:17:07;;;;;;;22.85;13.55;;;;;;;;;;4980296;28;20047;-78
2022/06/02 01:19:49;;;;;;;18.92;12.43;;;;;;;;;;4953527;28;20470;-79
2022/06/02 01:22:31;;;;;;;19.48;11.80;;;;;;;;;;4972482;28;20420;-79
2022/06/02 01:25:06;;;;;;;16.67;11.32;;;;;;;;;;4966403;28;20045;-81
2022/06/02 01:27:52;;;;;;;19.00;11.75;;;;;;;;;;4982643;28;20077;-82
2022/06/02 01:33:29;;;;;;;13.07;9.30;;;;;;;;;;5003677;28;20137;-79
2022/06/02 01:36:01;;;;;;;17.17;11.35;;;;;;;;;;4988952;28;20520;-78
2022/06/02 01:38:46;;;;;;;18.20;11.43;;;;;;;;;;4981244;28;20467;-78
2022/06/02 01:41:25;;;;;;;17.15;11.02;;;;;;;;;;4986309;28;20530;-78
2022/06/02 01:44:05;;;;;;;16.13;10.70;;;;;;;;;;4969602;28;20049;-78
2022/06/02 01:47:09;;;;;;;16.55;11.25;;;;;;;;;;4969833;28;20144;-79
2022/06/02 01:50:13;;;;;;;14.85;10.35;;;;;;;;;;4907896;29;20079;-79
2022/06/02 01:52:51;;;;;;;13.60;9.10;;;;;;;;;;4856506;29;20082;-78
2022/06/02 01:55:17;;;;;;;14.55;9.98;;;;;;;;;;4949742;28;20054;-79
2022/06/02 01:57:58;;;;;;;12.15;8.32;;;;;;;;;;4958505;28;20057;-78
2022/06/02 02:00:26;;;;;;;15.05;9.48;;;;;;;;;;4978219;28;20499;-79
2022/06/02 02:02:58;;;;;;;12.88;9.07;;;;;;;;;;4963238;28;20074;-79
2022/06/02 02:05:30;;;;;;;14.60;9.70;;;;;;;;;;4968941;28;20043;-79
2022/06/02 02:08:14;;;;;;;13.88;9.35;;;;;;;;;;4978284;28;20046;-83
2022/06/02 02:10:52;;;;;;;14.10;9.65;;;;;;;;;;4987150;28;20508;-83
2022/06/02 02:13:25;;;;;;;13.75;9.00;;;;;;;;;;5006027;28;20034;-79
2022/06/02 02:16:10;;;;;;;12.05;7.90;;;;;;;;;;4981382;28;20486;-78
2022/06/02 02:18:42;;;;;;;12.93;8.80;;;;;;;;;;4994100;28;20122;-78
2022/06/02 02:21:15;;;;;;;17.45;11.65;;;;;;;;;;4988970;28;20125;-79
2022/06/02 02:23:50;;;;;;;18.33;11.50;;;;;;;;;;5000626;28;20406;-79
2022/06/02 02:26:36;;;;;;;17.58;11.10;;;;;;;;;;5009949;28;20046;-79
2022/06/02 02:29:20;;;;;;;18.30;10.77;;;;;;;;;;4967757;28;20050;-81
2022/06/02 02:31:50;;;;;;;13.85;9.52;;;;;;;;;;4969886;28;20043;-79
2022/06/02 02:34:26;;;;;;;19.75;13.05;;;;;;;;;;4968853;28;20121;-79
2022/06/02 02:36:55;;;;;;;18.90;11.68;;;;;;;;;;4982451;28;20053;-78
2022/06/02 02:39:30;;;;;;;21.92;13.45;;;;;;;;;;4976722;28;20062;-78
2022/06/02 02:41:58;;;;;;;20.23;12.57;;;;;;;;;;4971208;28;20043;-78
2022/06/02 02:44:46;;;;;;;20.75;12.48;;;;;;;;;;4959328;28;20034;-78
2022/06/02 02:47:19;;;;;;;21.05;12.60;;;;;;;;;;4974265;28;20054;-77
2022/06/02 02:49:52;;;;;;;17.17;11.05;;;;;;;;;;4982483;28;20058;-78
2022/06/02 02:52:30;;;;;;;19.75;11.30;;;;;;;;;;5006887;28;20379;-78
2022/06/02 02:54:56;;;;;;;16.95;10.50;;;;;;;;;;4982542;28;20078;-78
2022/06/02 02:57:31;;;;;;;17.20;11.45;;;;;;;;;;4975638;28;20043;-82
2022/06/02 03:00:14;;;;;;;16.80;10.50;;;;;;;;;;4972930;28;20118;-82
2022/06/02 03:03:07;;;;;;;19.42;11.90;;;;;;;;;;4985482;28;20395;-82
2022/06/02 03:06:01;;;;;;;18.98;11.57;;;;;;;;;;4979740;28;20073;-82
2022/06/02 03:08:30;;;;;;;16.48;10.55;;;;;;;;;;4995328;28;20423;-77
2022/06/02 03:11:02;;;;;;;20.38;11.88;;;;;;;;;;4971816;28;20125;-78
2022/06/02 03:13:34;;;;;;;16.58;10.23;;;;;;;;;;4972378;28;20499;-78
2022/06/02 03:16:12;;;;;;;15.20;9.05;;;;;;;;;;4973268;28;20058;-82
2022/06/02 03:18:46;;;;;;;16.05;10.43;;;;;;;;;;4988655;28;20138;-81
2022/06/02 03:21:31;;;;;;;16.77;10.63;;;;;;;;;;4972553;28;21530;-82
2022/06/02 03:24:15;;;;;;;16.63;10.85;;;;;;;;;;4977338;28;20053;-81
2022/06/02 03:26:48;;;;;;;19.48;10.98;;;;;;;;;;4986375;28;20082;-81
2022/06/02 03:29:17;;;;;;;19.05;11.07;;;;;;;;;;4981107;28;20038;-82
2022/06/02 03:31:48;;;;;;;16.92;10.25;;;;;;;;;;4972717;28;20546;-81
2022/06/02 03:34:18;;;;;;;18.60;11.70;;;;;;;;;;4979247;28;20133;-81
2022/06/02 03:36:44;;;;;;;16.73;10.52;;;;;;;;;;4986977;28;20189;-81
2022/06/02 03:39:26;;;;;;;18.02;11.30;;;;;;;;;;4989409;28;20042;-82
2022/06/02 03:41:55;;;;;;;15.63;10.20;;;;;;;;;;4978430;28;20043;-81
2022/06/02 03:44:27;;;;;;;17.77;10.35;;;;;;;;;;4990092;28;20049;-82
2022/06/02 03:46:54;;;;;;;15.43;9.65;;;;;;;;;;4956644;28;20434;-82
2022/06/02 03:49:39;;;;;;;13.88;9.50;;;;;;;;;;4985485;28;20483;-82
2022/06/02 03:52:17;;;;;;;13.80;9.70;;;;;;;;;;4989812;28;20249;-78
2022/06/02 03:55:07;;;;;;;15.18;9.55;;;;;;;;;;4989552;28;20074;-78
2022/06/02 03:57:59;;;;;;;14.82;9.13;;;;;;;;;;4954735;28;20051;-82
2022/06/02 04:00:27;;;;;;;12.13;8.40;;;;;;;;;;4945757;28;20054;-82
2022/06/02 04:02:54;;;;;;;12.95;8.93;;;;;;;;;;5005039;28;20601;-82
2022/06/02 04:05:33;;;;;;;11.52;8.20;;;;;;;;;;4991304;28;20042;-81
2022/06/02 04:08:18;;;;;;;13.35;8.68;;;;;;;;;;4995380;28;20113;-81
2022/06/02 04:10:47;;;;;;;11.32;8.35;;;;;;;;;;4974671;28;20046;-82
2022/06/02 04:16:23;;;;;;;10.50;7.07;;;;;;;;;;4977115;28;20050;-82
2022/06/02 04:18:55;;;;;;;10.52;7.47;;;;;;;;;;4988256;28;20134;-83
2022/06/02 04:21:37;;;;;;;10.40;6.78;;;;;;;;;;4973522;28;20118;-83
2022/06/02 04:24:23;;;;;;;9.90;6.60;;;;;;;;;;4998889;28;20055;-82
2022/06/02 04:26:49;;;;;;;8.20;6.30;;;;;;;;;;4976218;28;20098;-83
2022/06/02 04:29:15;;;;;;;8.07;6.30;;;;;;;;;;4984408;28;20053;-82
2022/06/02 04:31:48;;;;;;;8.27;6.22;;;;;;;;;;4993057;28;20494;-82
2022/06/02 04:34:32;;;;;;;7.97;6.00;;;;;;;;;;5015510;28;20410;-78
2022/06/02 04:36:58;;;;;;;8.35;6.35;;;;;;;;;;4976676;28;20046;-78
2022/06/02 04:39:31;;;;;;;8.07;6.25;;;;;;;;;;4978175;28;20043;-77
2022/06/02 04:42:03;;;;;;;8.43;6.25;;;;;;;;;;4976530;28;20042;-77
2022/06/02 04:44:29;;;;;;;6.90;5.70;;;;;;;;;;4979794;28;20050;-78
2022/06/02 04:46:56;;;;;;;9.18;6.00;;;;;;;;;;4970415;28;20391;-78
2022/06/02 04:49:22;;;;;;;11.25;7.15;;;;;;;;;;4970806;28;20038;-78
2022/06/02 04:52:11;;;;;;;10.88;7.20;;;;;;;;;;4986806;28;20526;-78
2022/06/02 04:54:57;;;;;;;7.63;6.07;;;;;;;;;;4975762;28;20050;-78
2022/06/02 04:57:42;;;;;;;8.98;6.82;;;;;;;;;;4958280;28;20090;-78
2022/06/02 05:00:13;;;;;;;10.32;7.40;;;;;;;;;;4970652;28;20506;-79
2022/06/02 05:02:52;;;;;;;8.60;6.60;;;;;;;;;;4986419;28;20092;-79
2022/06/02 05:05:30;;;;;;;8.52;6.88;;;;;;;;;;5002441;28;20038;-79
2022/06/02 05:07:59;;;;;;;9.15;7.07;;;;;;;;;;4968184;28;20126;-79
2022/06/02 05:10:44;;;;;;;10.65;7.40;;;;;;;;;;4957570;28;20488;-79
2022/06/02 05:13:26;;;;;;;7.82;6.43;;;;;;;;;;4962983;28;20043;-80
2022/06/02 05:15:55;;;;;;;7.63;6.07;;;;;;;;;;5002061;28;20066;-79
2022/06/02 05:18:40;;;;;;;8.20;6.40;;;;;;;;;;4989458;28;20051;-80
2022/06/02 05:21:09;;;;;;;8.10;6.32;;;;;;;;;;4991501;28;20495;-80
2022/06/02 05:23:36;;;;;;;8.52;5.97;;;;;;;;;;4976055;28;20061;-79
2022/06/02 05:26:11;;;;;;;8.38;6.18;;;;;;;;;;5003104;28;20050;-80
2022/06/02 05:28:56;;;;;;;8.00;5.97;;;;;;;;;;4986153;28;20045;-80
2022/06/02 05:31:26;;;;;;;6.03;5.43;;;;;;;;;;4986889;28;20401;-81
2022/06/02 05:34:27;;;;;;;7.32;5.45;;;;;;;;;;4986430;28;20043;-81
2022/06/02 05:37:08;;;;;;;6.45;4.75;;;;;;;;;;4913446;29;20083;-81
2022/06/02 05:39:40;;;;;;;6.50;5.10;;;;;;;;;;4964554;28;20098;-81
2022/06/02 05:42:10;;;;;;;6.43;4.95;;;;;;;;;;4969983;28;20394;-81
2022/06/02 05:44:39;;;;;;;8.13;5.07;;;;;;;;;;4993931;28;20201;-81
2022/06/02 05:47:09;;;;;;;5.28;4.55;;;;;;;;;;4975683;28;20081;-83
2022/06/02 05:49:50;;;;;;;5.95;4.57;;;;;;;;;;4980981;28;20144;-83
2022/06/02 05:52:23;;;;;;;6.75;4.60;;;;;;;;;;4976429;28;20165;-83
2022/06/02 05:54:49;;;;;;;6.03;4.13;;;;;;;;;;5015186;28;20050;-85
2022/06/02 05:57:31;;;;;;;5.80;4.40;;;;;;;;;;4992798;28;20102;-84
2022/06/02 06:00:12;;;;;;;5.30;4.10;;;;;;;;;;4973121;28;20045;-85
2022/06/02 06:02:53;;;;;;;5.82;3.88;;;;;;;;;;4988507;28;20124;-85
2022/06/02 06:05:22;;;;;;;5.53;3.80;;;;;;;;;;4992473;28;20068;-85
2022/06/02 06:07:54;;;;;;;5.85;3.88;;;;;;;;;;4991537;28;20042;-85
2022/06/02 06:10:26;;;;;;;5.30;3.50;;;;;;;;;;4966348;28;20046;-83
2022/06/02 06:13:00;;;;;;;5.38;3.50;;;;;;;;;;4997555;28;20046;-78
2022/06/02 06:15:41;;;;;;;4.70;3.38;;;;;;;;;;4982209;28;20039;-78
2022/06/02 06:18:14;;;;;;;5.78;3.45;;;;;;;;;;4978193;28;20051;-78
2022/06/02 06:20:59;;;;;;;5.38;3.35;;;;;;;;;;4993933;28;20046;-79
2022/06/02 06:23:41;;;;;;;5.32;3.40;;;;;;;;;;4987142;28;20482;-78
2022/06/02 06:26:16;;;;;;;5.60;3.35;;;;;;;;;;4986079;28;20093;-88
2022/06/02 06:28:42;;;;;;;;;;;;;;;;;;4986830;28;20451;-86
2022/06/02 06:31:20;;;;;;;3.72;2.30;;;;;;;;;;4991867;28;20297;-88
2022/06/02 06:33:49;;;;;;;4.32;2.35;;;;;;;;;;4985570;28;20049;-85
2022/06/02 06:36:34;;;;;;;3.55;2.50;;;;;;;;;;4988518;28;20093;-85
2022/06/02 06:39:08;;;;;;;3.60;2.53;;;;;;;;;;4975711;28;20101;-88
2022/06/02 06:41:34;;;;;;;3.42;2.40;;;;;;;;;;4988159;28;20105;-83
2022/06/02 06:44:19;;;;;;;3.55;2.10;;;;;;;;;;4971161;28;20043;-83
2022/06/02 06:46:50;;;;;;;3.50;2.10;;;;;;;;;;4971517;28;20070;-85
2022/06/02 06:49:35;;;;;;;4.40;1.90;;;;;;;;;;5007315;28;20050;-88
2022/06/02 06:52:12;;;;;;;3.53;1.85;;;;;;;;;;4990039;28;20414;-85
2022/06/02 06:54:41;;;;;;;4.68;2.38;;;;;;;;;;4971765;28;20186;-84
2022/06/02 06:57:11;;;;;;;4.70;1.80;;;;;;;;;;4956901;28;20487;-83
2022/06/02 06:59:58;;;;;;;2.92;1.98;;;;;;;;;;4983940;28;20406;-86
2022/06/02 07:02:43;;;;;;;2.63;1.42;;;;;;;;;;5003552;28;20079;-87
2022/06/02 07:05:12;;;;;;;4.60;2.40;;;;;;;;;;5003857;28;20035;-87
2022/06/02 07:07:48;;;;;;;3.85;1.73;;;;;;;;;;4976559;28;20038;-86
2022/06/02 07:10:36;;;;;;;4.05;1.83;;;;;;;;;;4992490;28;20046;-86
2022/06/02 07:13:06;;;;;;;2.30;2.00;;;;;;;;;;4984919;28;20049;-84
2022/06/02 07:15:40;;;;;;;4.20;1.88;;;;;;;;;;5007170;28;20042;-84
2022/06/02 07:18:07;;;;;;;2.45;1.85;;;;;;;;;;4988122;28;20529;-75
2022/06/02 07:20:54;;;;;;;4.35;1.80;;;;;;;;;;4988096;28;20043;-75
2022/06/02 07:23:39;;;;;;;4.85;2.20;;;;;;;;;;4997093;28;20047;-75
2022/06/02 07:26:11;;;;;;;3.93;2.13;;;;;;;;;;4976577;28;20121;-75
2022/06/02 07:28:42;;;;;;;3.78;2.00;;;;;;;;;;4968122;28;20042;-75
2022/06/02 07:31:14;;;;;;;4.40;1.90;;;;;;;;;;4969997;28;20053;-74
2022/06/02 07:34:04;;;;;;;4.05;1.90;;;;;;;;;;4972282;28;20077;-75
2022/06/02 07:36:41;;;;;;;3.85;1.98;;;;;;;;;;4987958;28;20050;-74
2022/06/02 07:39:16;;;;;;;3.55;1.90;;;;;;;;;;4974158;28;20395;-75
2022/06/02 07:42:01;;;;;;;2.90;1.60;;;;;;;;;;4973354;28;20050;-76
2022/06/02 07:44:27;;;;;;;2.50;1.20;;;;;;;;;;4983765;28;20101;-77
2022/06/02 07:47:08;;;;;;;3.38;1.40;;;;;;;;;;4990530;28;20439;-76
2022/06/02 07:49:40;;;;;;;3.10;1.40;;;;;;;;;;4985143;28;20046;-77
2022/06/02 07:52:26;;;;;;;2.53;1.38;;;;;;;;;;4970404;28;20053;-76
2022/06/02 07:55:28;;;;;;;5.45;1.40;;;;;;;;;;4967197;28;20853;-76
2022/06/02 07:58:08;;;;;;;3.58;1.50;;;;;;;;;;4968056;28;20042;-76
2022/06/02 08:00:54;;;;;;;3.00;1.40;;;;;;;;;;4973835;28;20031;-75
2022/06/02 08:03:45;;;;;;;2.95;1.30;;;;;;;;;;4960609;28;20051;-76
2022/06/02 08:06:18;;;;;;;15.13;1.75;;;;;;;;;;4970416;28;20094;-75
2022/06/02 08:08:54;;;;;;;1.88;0.88;;;;;;;;;;4979178;28;20406;-75
2022/06/02 08:11:20;;;;;;;;;;;;;;;;;;4971097;28;20065;-75
2022/06/02 08:13:48;;;;;;;3.75;1.40;;;;;;;;;;4971906;28;20270;-75
2022/06/02 08:16:21;;;;;;;7.00;1.48;;;;;;;;;;4985317;28;20398;-77
2022/06/02 08:19:06;;;;;;;2.97;1.20;;;;;;;;;;5005891;28;20133;-74
2022/06/02 08:21:45;;;;;;;2.53;1.15;;;;;;;;;;4985550;28;20054;-74
2022/06/02 08:24:33;;;;;;;3.03;1.05;;;;;;;;;;5002478;28;20050;-73
2022/06/02 08:27:03;;;;;;;2.13;0.80;;;;;;;;;;4988330;28;20099;-75
2022/06/02 08:29:29;;;;;;;2.47;1.23;;;;;;;;;;4969935;28;20085;-74
2022/06/02 08:32:12;;;;;;;2.53;1.30;;;;;;;;;;4956183;28;20051;-74
2022/06/02 08:35:04;;;;;;;2.45;1.05;;;;;;;;;;4985562;28;20043;-73
2022/06/02 08:37:48;;;;;;;2.30;0.90;;;;;;;;;;4992847;28;20074;-74
2022/06/02 08:40:14;;;;;;;2.47;0.80;;;;;;;;;;4956413;28;20539;-75
2022/06/02 08:42:49;;;;;;;2.67;1.08;;;;;;;;;;5002185;28;20387;-74
2022/06/02 08:45:15;;;;;;;;;;;;;;;;;;4971970;28;20505;-74
2022/06/02 08:48:03;;;;;;;1.75;0.90;;;;;;;;;;4986677;28;19922;-74
2022/06/02 08:50:35;;;;;;;2.70;1.00;;;;;;;;;;4974246;28;20046;-74
2022/06/02 08:53:07;;;;;;;2.08;1.02;;;;;;;;;;4986508;28;20098;-73
2022/06/02 08:55:42;;;;;;;1.80;1.00;;;;;;;;;;4981467;28;20046;-73
2022/06/02 08:58:11;;;;;;;2.53;1.00;;;;;;;;;;4956481;28;20562;-73
2022/06/02 09:01:01;;;;;;;4.15;0.90;;;;;;;;;;4994440;28;20070;-73
2022/06/02 09:03:45;;;;;;;1.90;0.82;;;;;;;;;;4960245;28;20069;-74
2022/06/02 09:06:31;;;;;;;3.20;0.95;;;;;;;;;;4985632;28;20078;-73
2022/06/02 09:09:05;;;;;;;2.00;0.80;;;;;;;;;;4965909;28;20138;-73
2022/06/02 09:11:41;;;;;;;1.88;0.98;;;;;;;;;;4988353;28;20102;-73
2022/06/02 09:14:10;;;;;;;2.72;1.15;;;;;;;;;;4967703;28;20507;-74
2022/06/02 09:16:44;;;;;;;2.75;1.00;;;;;;;;;;5000344;28;20511;-74
2022/06/02 09:19:19;;;;;;;1.70;0.93;;;;;;;;;;4982453;28;20105;-74
2022/06/02 09:21:45;;;;;;;;;;;;;;;;;;5012609;28;20430;-74
2022/06/02 09:24:23;;;;;;;2.35;1.00;;;;;;;;;;4970492;28;19918;-74
2022/06/02 09:27:03;;;;;;;2.95;0.90;;;;;;;;;;4983854;28;20035;-74
2022/06/02 09:29:47;;;;;;;2.28;1.23;;;;;;;;;;4972253;28;20130;-74
2022/06/02 09:32:28;;;;;;;2.95;1.27;;;;;;;;;;4995712;28;20129;-73
2022/06/02 09:35:13;;;;;;;1.88;1.17;;;;;;;;;;4969027;28;20050;-73
2022/06/02 09:37:48;;;;;;;2.58;1.00;;;;;;;;;;4967713;28;20054;-73
2022/06/02 09:40:34;;;;;;;2.28;1.10;;;;;;;;;;4970986;28;20402;-73
2022/06/02 09:43:00;;;;;;;3.47;1.20;;;;;;;;;;5004131;28;20085;-78
2022/06/02 09:45:38;;;;;;;4.22;1.17;;;;;;;;;;4968657;28;20057;-81
2022/06/02 09:48:13;;;;;;;2.28;1.00;;;;;;;;;;4976348;28;20402;-78
2022/06/02 09:50:45;;;;;;;4.63;1.13;;;;;;;;;;4988170;28;20050;-78
2022/06/02 09:53:27;;;;;;;3.50;1.27;;;;;;;;;;4979082;28;20038;-77
2022/06/02 09:56:01;;;;;;;4.00;1.20;;;;;;;;;;4983048;28;20109;-78
2022/06/02 09:58:38;;;;;;;8.27;1.60;;;;;;;;;;5003641;28;20130;-78
2022/06/02 10:01:22;;;;;;;126.95;23.48;;;;;;;;;;4968376;28;20043;-78
2022/06/02 10:03:58;;;;;;;7.13;1.80;;;;;;;;;;4982740;28;20113;-78
2022/06/02 10:06:25;;;;;;;;;;;;;;;;;;4972696;28;20121;-77
2022/06/02 10:09:06;;;;;;;5.80;1.50;;;;;;;;;;5002461;28;19918;-77
2022/06/02 10:11:32;;;;;;;9.55;1.85;;;;;;;;;;4973102;28;20382;-80
2022/06/02 10:14:17;;;;;;;2.10;1.20;;;;;;;;;;4970225;28;20552;-77
2022/06/02 10:17:09;;;;;;;7.20;1.20;;;;;;;;;;4973932;28;20050;-77
2022/06/02 10:19:56;;;;;;;3.25;1.23;;;;;;;;;;4967126;28;20062;-77
2022/06/02 10:22:42;;;;;;;2.22;1.23;;;;;;;;;;5002258;28;20572;-78
2022/06/02 10:25:27;;;;;;;2.75;1.33;;;;;;;;;;4982301;28;20106;-79
2022/06/02 10:27:53;;;;;;;2.27;0.93;;;;;;;;;;4990533;28;20060;-78
2022/06/02 10:30:39;;;;;;;2.67;1.10;;;;;;;;;;4970873;28;20121;-74
2022/06/02 10:33:05;;;;;;;1.60;0.90;;;;;;;;;;4996234;28;20043;-74
2022/06/02 10:36:03;;;;;;;3.95;1.40;;;;;;;;;;4982007;28;20126;-73
2022/06/02 10:38:35;;;;;;;2.90;1.58;;;;;;;;;;4968873;28;20524;-74
2022/06/02 10:41:22;;;;;;;2.75;1.20;;;;;;;;;;4968072;28;20479;-74
2022/06/02 10:43:48;;;;;;;2.90;1.08;;;;;;;;;;4985224;28;20412;-74
2022/06/02 10:46:14;;;;;;;1.83;0.90;;;;;;;;;;4985061;28;20050;-74
2022/06/02 10:48:49;;;;;;;3.70;1.20;;;;;;;;;;4985068;28;20069;-74
2022/06/02 10:51:15;;;;;;;;;;;;;;;;;;4986158;28;20086;-74
2022/06/02 10:53:41;;;;;;;;;;;;;;;;;;4985851;28;20421;-74
2022/06/02 10:56:08;;;;;;;;;;;;;;;;;;4969496;28;19926;-74
2022/06/02 10:58:40;;;;;;;2.88;1.60;;;;;;;;;;4969668;28;19968;-74
2022/06/02 11:01:09;;;;;;;4.32;1.30;;;;;;;;;;4983849;28;20043;-74
2022/06/02 11:03:58;;;;;;;2.25;1.10;;;;;;;;;;4971022;28;20487;-74
2022/06/02 11:06:30;;;;;;;2.88;1.10;;;;;;;;;;4973881;28;20046;-74
2022/06/02 11:09:03;;;;;;;2.25;1.20;;;;;;;;;;4973242;28;20051;-73
2022/06/02 11:11:47;;;;;;;3.15;1.20;;;;;;;;;;4974764;28;20047;-72
2022/06/02 11:14:32;;;;;;;3.17;1.10;;;;;;;;;;4974662;28;20048;-73
2022/06/02 11:17:01;;;;;;;1.67;0.90;;;;;;;;;;4973099;28;20126;-74
2022/06/02 11:19:50;;;;;;;1.23;0.80;;;;;;;;;;4973202;28;20051;-74
2022/06/02 11:22:22;;;;;;;2.03;0.98;;;;;;;;;;4980870;28;20078;-74
2022/06/02 11:24:51;;;;;;;2.15;1.02;;;;;;;;;;4989875;28;20042;-74
2022/06/02 11:27:24;;;;;;;1.77;0.80;;;;;;;;;;4989872;28;20363;-74
2022/06/02 11:30:19;;;;;;;3.45;1.60;;;;;;;;;;4989754;28;20047;-74
2022/06/02 11:33:03;;;;;;;1.55;1.00;;;;;;;;;;4980452;28;20119;-74
2022/06/02 11:35:33;;;;;;;1.70;0.95;;;;;;;;;;4974843;28;20505;-74
2022/06/02 11:38:28;;;;;;;2.53;0.95;;;;;;;;;;5006049;28;20043;-74
2022/06/02 11:40:57;;;;;;;2.10;0.90;;;;;;;;;;4939553;28;20428;-74
2022/06/02 11:43:31;;;;;;;1.55;0.80;;;;;;;;;;4991372;28;20053;-74
2022/06/02 11:46:06;;;;;;;3.85;1.30;;;;;;;;;;4976733;28;20047;-74
2022/06/02 11:48:52;;;;;;;2.78;1.10;;;;;;;;;;4988964;28;20098;-74
2022/06/02 11:51:33;;;;;;;2.03;1.00;;;;;;;;;;4950211;28;20047;-74
2022/06/02 11:54:08;;;;;;;3.50;1.13;;;;;;;;;;4973696;28;20093;-74
2022/06/02 11:56:53;;;;;;;1.70;1.05;;;;;;;;;;4980863;28;20043;-74
2022/06/02 11:59:25;;;;;;;4.50;1.10;;;;;;;;;;5003895;28;20094;-73
2022/06/02 12:02:04;;;;;;;3.28;1.10;;;;;;;;;;4962049;28;20045;-72
2022/06/02 12:04:30;;;;;;;1.90;1.02;;;;;;;;;;4989782;28;20035;-73
2022/06/02 12:06:59;;;;;;;1.63;1.00;;;;;;;;;;4988567;28;20109;-74
2022/06/02 12:09:26;;;;;;;2.00;1.05;;;;;;;;;;5002947;28;20399;-74
2022/06/02 12:12:07;;;;;;;1.80;1.00;;;;;;;;;;4988858;28;20466;-73
2022/06/02 12:14:36;;;;;;;1.30;0.82;;;;;;;;;;4998297;28;20058;-74
2022/06/02 12:17:02;;;;;;;2.30;1.10;;;;;;;;;;4972158;28;20433;-75
2022/06/02 12:19:42;;;;;;;11.43;2.28;;;;;;;;;;4985432;28;20087;-72
2022/06/02 12:22:08;;;;;;;3.60;1.20;;;;;;;;;;4983079;28;20042;-73
2022/06/02 12:24:49;;;;;;;13.52;3.15;;;;;;;;;;4974909;28;20039;-74
2022/06/02 12:27:21;;;;;;;107.65;9.52;;;;;;;;;;4974872;28;20435;-72
2022/06/02 12:29:59;;;;;;;21.33;2.55;;;;;;;;;;4973132;28;20082;-77
2022/06/02 12:32:35;;;;;;;4.45;1.30;;;;;;;;;;4982486;28;20387;-74
2022/06/02 12:35:01;;;;;;;;;;;;;;;;;;4989315;28;20058;-74
2022/06/02 12:37:46;;;;;;;31.35;7.72;;;;;;;;;;5003969;28;19925;-76
2022/06/02 12:40:24;;;;;;;2.95;1.45;;;;;;;;;;4971621;28;20491;-74
2022/06/02 12:43:09;;;;;;;2.75;1.10;;;;;;;;;;4987330;28;20129;-74
2022/06/02 12:45:48;;;;;;;1.70;0.80;;;;;;;;;;4993062;28;20705;-74
2022/06/02 12:48:37;;;;;;;1.25;0.90;;;;;;;;;;4986537;28;20043;-73
2022/06/02 12:51:27;;;;;;;2.03;0.90;;;;;;;;;;4981572;28;20038;-73
2022/06/02 12:53:53;;;;;;;1.67;0.90;;;;;;;;;;5000198;28;20039;-74
2022/06/02 12:56:22;;;;;;;2.03;1.00;;;;;;;;;;4997172;28;20475;-74
2022/06/02 12:58:51;;;;;;;3.40;0.93;;;;;;;;;;4986648;28;20093;-75
2022/06/02 13:01:17;;;;;;;2.03;0.90;;;;;;;;;;4986128;28;20067;-75
2022/06/02 13:04:03;;;;;;;1.60;0.90;;;;;;;;;;4987576;28;20043;-78
2022/06/02 13:06:49;;;;;;;2.03;0.90;;;;;;;;;;5006554;28;20406;-77
2022/06/02 13:09:39;;;;;;;1.73;1.00;;;;;;;;;;4934632;28;20528;-78
2022/06/02 13:12:14;;;;;;;2.85;0.98;;;;;;;;;;4959144;28;20051;-78
2022/06/02 13:14:50;;;;;;;2.50;1.00;;;;;;;;;;4996679;28;20483;-79
2022/06/02 13:17:25;;;;;;;2.75;1.10;;;;;;;;;;4972885;28;20112;-79
2022/06/02 13:19:52;;;;;;;;;;;;;;;;;;4963406;28;20088;-78
2022/06/02 13:22:37;;;;;;;1.85;1.05;;;;;;;;;;4978952;28;19918;-78
2022/06/02 13:25:12;;;;;;;24.33;2.13;;;;;;;;;;4986624;28;20102;-74
2022/06/02 13:27:38;;;;;;;;;;;;;;;;;;4972296;28;20321;-75
2022/06/02 13:30:04;;;;;;;8.65;2.05;;;;;;;;;;4967847;28;20409;-79
2022/06/02 13:32:49;;;;;;;377.30;21.58;;;;;;;;;;4978996;28;20151;-76
2022/06/02 13:35:35;;;;;;;6.17;1.73;;;;;;;;;;4974135;28;20053;-74
2022/06/02 13:38:23;;;;;;;2.53;1.00;;;;;;;;;;4979727;28;20217;-76
2022/06/02 13:41:08;;;;;;;2.28;1.20;;;;;;;;;;4964449;28;20403;-77
2022/06/02 13:43:53;;;;;;;4.40;1.23;;;;;;;;;;4982646;28;20594;-77
2022/06/02 13:46:22;;;;;;;3.47;1.10;;;;;;;;;;4973105;28;20047;-76
2022/06/02 13:49:08;;;;;;;2.67;1.00;;;;;;;;;;4982257;28;20610;-77
2022/06/02 13:51:52;;;;;;;2.50;0.90;;;;;;;;;;4990597;28;20043;-77
2022/06/02 13:57:38;;;;;;;2.30;1.10;;;;;;;;;;4980470;28;20047;-76
2022/06/02 14:00:10;;;;;;;4.00;1.17;;;;;;;;;;4988102;28;20047;-76
2022/06/02 14:03:00;;;;;;;2.70;1.00;;;;;;;;;;4966085;28;20035;-78
2022/06/02 14:05:35;;;;;;;5.25;1.02;;;;;;;;;;4971425;28;20058;-77
2022/06/02 14:08:20;;;;;;;2.75;1.00;;;;;;;;;;4998649;28;20551;-76
2022/06/02 14:11:11;;;;;;;1.98;0.80;;;;;;;;;;4999000;28;20489;-76
2022/06/02 14:13:37;;;;;;;2.45;1.00;;;;;;;;;;4998916;28;20075;-76
2022/06/02 14:16:03;;;;;;;2.67;1.27;;;;;;;;;;4982580;28;20042;-76
2022/06/02 14:18:35;;;;;;;3.20;1.02;;;;;;;;;;4981190;28;20050;-75
2022/06/02 14:21:17;;;;;;;2.70;1.00;;;;;;;;;;4986076;28;20439;-75
2022/06/02 14:24:01;;;;;;;1.80;1.00;;;;;;;;;;4984265;28;20075;-76
2022/06/02 14:27:06;;;;;;;1.70;0.90;;;;;;;;;;4987472;28;20178;-76
2022/06/02 14:29:40;;;;;;;2.28;1.20;;;;;;;;;;4963349;28;20129;-76
2022/06/02 14:32:09;;;;;;;2.20;1.02;;;;;;;;;;4971020;28;20046;-76
2022/06/02 14:34:36;;;;;;;2.88;1.20;;;;;;;;;;4966678;28;20082;-76
2022/06/02 14:37:06;;;;;;;4.43;1.20;;;;;;;;;;4957484;28;20122;-76
2022/06/02 14:39:35;;;;;;;2.42;1.30;;;;;;;;;;4966781;28;20287;-76
2022/06/02 14:42:01;;;;;;;3.40;1.30;;;;;;;;;;4970065;28;20097;-76
2022/06/02 14:44:28;;;;;;;2.25;1.40;;;;;;;;;;4982462;28;20042;-77
2022/06/02 14:47:12;;;;;;;3.30;1.10;;;;;;;;;;4985668;28;20058;-76
2022/06/02 14:49:41;;;;;;;2.67;1.00;;;;;;;;;;4968903;28;20093;-77
2022/06/02 14:52:26;;;;;;;3.20;1.00;;;;;;;;;;4984373;28;20081;-77
2022/06/02 14:55:11;;;;;;;2.70;1.20;;;;;;;;;;5000963;28;20078;-79
2022/06/02 14:58:01;;;;;;;2.27;1.20;;;;;;;;;;4986286;28;20043;-77
2022/06/02 15:00:51;;;;;;;2.58;1.20;;;;;;;;;;4967517;28;20791;-77
2022/06/02 15:03:32;;;;;;;2.90;1.30;;;;;;;;;;4980970;28;20126;-77
2022/06/02 15:05:59;;;;;;;3.70;1.17;;;;;;;;;;4978546;28;20053;-78
2022/06/02 15:08:44;;;;;;;2.08;1.10;;;;;;;;;;4979187;28;20050;-78
2022/06/02 15:11:22;;;;;;;3.03;1.02;;;;;;;;;;4976901;28;21019;-76
2022/06/02 15:13:57;;;;;;;1.98;1.23;;;;;;;;;;4970871;28;20042;-77
2022/06/02 15:16:42;;;;;;;2.45;1.30;;;;;;;;;;4984642;28;20043;-76
2022/06/02 15:19:27;;;;;;;2.08;1.20;;;;;;;;;;5004136;28;20522;-77
2022/06/02 15:22:01;;;;;;;2.13;1.17;;;;;;;;;;4990298;28;20478;-77
2022/06/02 15:24:40;;;;;;;2.78;1.10;;;;;;;;;;4970816;28;20046;-74
2022/06/02 15:27:25;;;;;;;3.20;1.10;;;;;;;;;;5003513;28;20118;-87
2022/06/02 15:30:03;;;;;;;3.15;1.48;;;;;;;;;;5006487;28;20141;-86
2022/06/02 15:32:29;;;;;;;2.97;1.50;;;;;;;;;;4990424;28;20058;-87
2022/06/02 15:35:14;;;;;;;2.97;1.27;;;;;;;;;;5004048;28;20038;-86
2022/06/02 15:38:02;;;;;;;3.20;1.40;;;;;;;;;;4962855;28;20046;-87
2022/06/02 15:41:00;;;;;;;1.75;1.15;;;;;;;;;;4987923;28;20038;-89
2022/06/02 15:43:49;;;;;;;2.03;1.30;;;;;;;;;;4954847;28;20058;-88
2022/06/02 15:46:34;;;;;;;2.35;1.40;;;;;;;;;;4956231;28;20536;-87
2022/06/02 15:49:18;;;;;;;2.67;1.60;;;;;;;;;;4973765;28;20046;-86
2022/06/02 15:51:53;;;;;;;2.60;1.33;;;;;;;;;;4974414;28;20104;-89